Pure Adrenalin — VJD3680 — position and weather

sailwx.info

Track history (hours):
 
Tides and Currents Weather Stations Pressure Air Temp Water Temp Dewpoint Dewpoint Depression Visibility Wind Speed Wind Dir Waves Ship Positions

Pure Adrenalin

Last reported at 2015-Jan-28 22:18 UTC. Time now 2015-Feb-01 13:17 UTC.
Position S 12°28' E 130°51'.

Length 21 m.

Type: Ship. MMSI: 503642100.

Date/timePositionNaut miles runAvg speedWind from/ knotsBaromVisibWave heightAir tempDewpointWater temp
2015-Jan-28 22:18S 12°28' E 130°51'0 0.0
2015-Jan-28 21:33S 12°28' E 130°51'0 0.0
2015-Jan-28 20:33S 12°28' E 130°51'0 0.0
2015-Jan-28 19:33S 12°28' E 130°51'0 0.0
2015-Jan-28 18:33S 12°28' E 130°51'0 0.0
2015-Jan-28 17:33S 12°28' E 130°51'0 0.0
2015-Jan-28 16:27S 12°28' E 130°51'0 0.0
2015-Jan-28 15:33S 12°28' E 130°51'0 0.0
2015-Jan-28 14:27S 12°28' E 130°51'0 0.0
2015-Jan-28 13:27S 12°28' E 130°51'0 0.0
2015-Jan-28 10:33S 12°28' E 130°51'0 0.3
2015-Jan-28 09:33S 12°28' E 130°51'1211.6
2015-Jan-28 08:32S 12°20' E 130°43'1212.0
2015-Jan-28 07:33S 12°10' E 130°35'7 7.0
2015-Jan-28 06:33S 12°16' E 130°40'1313.2
2015-Jan-28 05:33S 12°27' E 130°48'4 2.9
2015-Jan-28 04:21S 12°28' E 130°51'0 0.0
2015-Jan-28 03:33S 12°28' E 130°51'0 0.0
2015-Jan-28 02:33S 12°28' E 130°51'0 0.0
2015-Jan-25 23:30S 12°28' E 130°51'0 0.0
2015-Jan-25 22:30S 12°28' E 130°51'  
2015-Jan-22 05:23S 12°28' E 130°51'0 0.0
2015-Jan-22 04:33S 12°28' E 130°51'0 0.0
2015-Jan-21 08:20S 12°28' E 130°51'0 0.0
2015-Jan-21 07:11S 12°28' E 130°51'0 0.0
2015-Jan-21 06:32S 12°28' E 130°51'0 0.0
2015-Jan-21 05:32S 12°28' E 130°51'0 0.0
2015-Jan-21 04:32S 12°28' E 130°51'0 0.0
2015-Jan-21 03:29S 12°28' E 130°51'0 0.0
2015-Jan-21 02:32S 12°28' E 130°51'0 0.0
2015-Jan-21 00:31S 12°28' E 130°51'0 0.0
2015-Jan-20 10:33S 12°28' E 130°51'1 0.7
2015-Jan-20 09:31S 12°28' E 130°51'0 0.0
2015-Jan-20 08:28S 12°28' E 130°51'0 0.0
2015-Jan-20 07:31S 12°28' E 130°51'0 0.0
2015-Jan-20 06:28S 12°28' E 130°51'0 0.0
2015-Jan-20 05:31S 12°28' E 130°51'0 0.0
2015-Jan-20 04:31S 12°28' E 130°51'0 0.0
2015-Jan-20 03:28S 12°28' E 130°51'0 0.0
2015-Jan-20 02:25S 12°28' E 130°51'0 0.0
2015-Jan-20 00:31S 12°28' E 130°51'0 0.0
2015-Jan-19 23:31S 12°28' E 130°51'0 0.0
2015-Jan-19 22:31S 12°28' E 130°51'0 0.0
2015-Jan-19 21:33S 12°28' E 130°51'1 0.7
2015-Jan-19 20:33S 12°28' E 130°51'0 0.0
2015-Jan-19 07:33S 12°28' E 130°51'0 0.1
2015-Jan-19 06:32S 12°28' E 130°51'  
Track history (hours):
 
Tides and Currents Weather Stations Pressure Air Temp Water Temp Dewpoint Dewpoint Depression Visibility Wind Speed Wind Dir Waves Ship Positions

Pure Adrenalin

Last reported at 2015-Jan-28 22:18 UTC. Time now 2015-Feb-01 13:17 UTC.
Position S 12°28' E 130°51'.

Length 21 m.

Type: Ship. MMSI: 503642100.

Date/timePositionNaut miles runAvg speedWind from/ knotsBaromVisibWave heightAir tempDewpointWater temp
2015-Jan-28 22:18S 12°28' E 130°51'0 0.0
2015-Jan-28 21:33S 12°28' E 130°51'0 0.0
2015-Jan-28 20:33S 12°28' E 130°51'0 0.0
2015-Jan-28 19:33S 12°28' E 130°51'0 0.0
2015-Jan-28 18:33S 12°28' E 130°51'0 0.0
2015-Jan-28 17:33S 12°28' E 130°51'0 0.0
2015-Jan-28 16:27S 12°28' E 130°51'0 0.0
2015-Jan-28 15:33S 12°28' E 130°51'0 0.0
2015-Jan-28 14:27S 12°28' E 130°51'0 0.0
2015-Jan-28 13:27S 12°28' E 130°51'0 0.0
2015-Jan-28 10:33S 12°28' E 130°51'0 0.3
2015-Jan-28 09:33S 12°28' E 130°51'1211.6
2015-Jan-28 08:32S 12°20' E 130°43'1212.0
2015-Jan-28 07:33S 12°10' E 130°35'7 7.0
2015-Jan-28 06:33S 12°16' E 130°40'1313.2
2015-Jan-28 05:33S 12°27' E 130°48'4 2.9
2015-Jan-28 04:21S 12°28' E 130°51'0 0.0
2015-Jan-28 03:33S 12°28' E 130°51'0 0.0
2015-Jan-28 02:33S 12°28' E 130°51'0 0.0
2015-Jan-25 23:30S 12°28' E 130°51'0 0.0
2015-Jan-25 22:30S 12°28' E 130°51'  
2015-Jan-22 05:23S 12°28' E 130°51'0 0.0
2015-Jan-22 04:33S 12°28' E 130°51'0 0.0
2015-Jan-21 08:20S 12°28' E 130°51'0 0.0
2015-Jan-21 07:11S 12°28' E 130°51'0 0.0
2015-Jan-21 06:32S 12°28' E 130°51'0 0.0
2015-Jan-21 05:32S 12°28' E 130°51'0 0.0
2015-Jan-21 04:32S 12°28' E 130°51'0 0.0
2015-Jan-21 03:29S 12°28' E 130°51'0 0.0
2015-Jan-21 02:32S 12°28' E 130°51'0 0.0
2015-Jan-21 00:31S 12°28' E 130°51'0 0.0
2015-Jan-20 10:33S 12°28' E 130°51'1 0.7
2015-Jan-20 09:31S 12°28' E 130°51'0 0.0
2015-Jan-20 08:28S 12°28' E 130°51'0 0.0
2015-Jan-20 07:31S 12°28' E 130°51'0 0.0
2015-Jan-20 06:28S 12°28' E 130°51'0 0.0
2015-Jan-20 05:31S 12°28' E 130°51'0 0.0
2015-Jan-20 04:31S 12°28' E 130°51'0 0.0
2015-Jan-20 03:28S 12°28' E 130°51'0 0.0
2015-Jan-20 02:25S 12°28' E 130°51'0 0.0
2015-Jan-20 00:31S 12°28' E 130°51'0 0.0
2015-Jan-19 23:31S 12°28' E 130°51'0 0.0
2015-Jan-19 22:31S 12°28' E 130°51'0 0.0
2015-Jan-19 21:33S 12°28' E 130°51'1 0.7
2015-Jan-19 20:33S 12°28' E 130°51'0 0.0
2015-Jan-19 07:33S 12°28' E 130°51'0 0.1
2015-Jan-19 06:32S 12°28' E 130°51'  

Dump ship's entire track history